Hovedside
METAR-TAF:

METAR-TAF

Lufthavner :

Khartoum, Sudan

breddegrad: 15-36N, lengdegrad: 032-33E, høyde over havet: 382 m

Gjeldene værobservasjon

Denne rapporten ble laget for 34 minutter siden, klokken 10:00 UTC
Vind 6 kt fra Sør-sørvest
Temperatur 33°C
Luftfuktighet 36%
Trykk 1009 hPa
Sikt 10 km eller mer
ingen skyer under 1500 m og ingen bygeskyer

METAR: HSSS 201000Z 21006KT CAVOK 33/16 Q1009 NOSIG

Tid: 12:34 (10:34 UTC)

Varsel

Denne rapporten ble laget for 5 timer og 34 minutter siden, klokken 05:00 UTC
Varsel gyldig fra 20. klokken 06 UTC til 21. klokken 12 UTC
Vind 12 kt fra Sør-sørvest med vindkast opp mot 22 kt
Sikt 10 km eller mer
Få skyer i en høyde av 4000 ft
Spredte skyer i en høyde av 14000 ft
Sannsynlighet 30% :
Midlertidig
fra 20. klokken 14 UTC til 20. klokken 18 UTC
Sikt: 6000 m
Få skyer i en høyde av 4500 ft, Bygeskyer.
Spredte skyer i en høyde av 14000 ft
torden, regn

TAF: HSSS 200500Z 2006/2112 21012G22KT 9999 FEW040 SCT140 PROB30 TEMPO 2014/2018 6000 TSRA FEW045CB SCT140

Værobservasjoner og værvarsel for over 4000 flyplasser (METAR- og TAF-rapporter).

Tilgjengelige stasjoner er representert av de røde og gule prikkene på kartet.

Hold musepekeren over prikken for å se navnet på stasjonen.

Klikk så for å se værobservasjoner og -varsler.

For å forandre kartet kan du klikke på den grønne knappen med svart kryss for å zoome inn, på den grønne knappen med strek for å zoome ut, eller på de grønne pilene for å se tilstøtende kart.


METAR-TAF: